createdAt,value
2017-09-10T00:02:06.067Z,15.57
2017-09-10T00:04:35.919Z,15.53
2017-09-10T00:07:04.294Z,15.42
2017-09-10T00:09:34.015Z,15.42
2017-09-10T00:12:03.210Z,15.34
2017-09-10T00:14:31.587Z,15.23
2017-09-10T00:17:01.405Z,15.24
2017-09-10T00:19:30.096Z,15.14
2017-09-10T00:21:58.440Z,15.11
2017-09-10T00:24:27.079Z,15.11
2017-09-10T00:26:56.152Z,14.88
2017-09-10T00:29:24.524Z,14.81
2017-09-10T00:31:52.863Z,14.79
2017-09-10T00:34:23.046Z,14.84
2017-09-10T00:36:51.385Z,14.83
2017-09-10T00:39:20.574Z,14.93
2017-09-10T00:41:49.690Z,14.95
2017-09-10T00:44:18.024Z,15.06
2017-09-10T00:46:46.393Z,15.01
2017-09-10T00:49:15.358Z,14.81
2017-09-10T00:51:43.707Z,14.88
2017-09-10T00:54:12.106Z,14.89
2017-09-10T00:56:41.743Z,14.98
2017-09-10T00:59:10.065Z,14.95
2017-09-10T01:01:38.418Z,14.81
2017-09-10T01:04:07.027Z,14.47
2017-09-10T01:06:35.405Z,14.24
2017-09-10T01:09:03.761Z,14.25
2017-09-10T01:11:32.905Z,13.97
2017-09-10T01:14:02.055Z,14.11
2017-09-10T01:16:31.551Z,14.11
2017-09-10T01:19:00.246Z,14.20
2017-09-10T01:21:29.497Z,14.29
2017-09-10T01:23:57.883Z,14.27
2017-09-10T01:26:26.499Z,14.36
2017-09-10T01:28:54.873Z,14.27
2017-09-10T01:31:23.222Z,14.29
2017-09-10T01:33:52.318Z,14.32
2017-09-10T01:36:21.388Z,14.36
2017-09-10T01:38:49.738Z,14.43
2017-09-10T01:41:18.385Z,14.43
2017-09-10T01:43:46.724Z,14.37
2017-09-10T01:46:15.592Z,14.44
2017-09-10T01:48:44.256Z,14.59
2017-09-10T01:51:12.595Z,14.55
2017-09-10T01:53:41.690Z,14.50
2017-09-10T01:56:10.602Z,14.56
2017-09-10T01:58:38.959Z,14.58
2017-09-10T02:01:07.324Z,14.59
2017-09-10T02:03:36.185Z,14.45
2017-09-10T02:06:05.136Z,14.24
2017-09-10T02:08:33.538Z,14.09
2017-09-10T02:11:02.165Z,14.03
2017-09-10T02:13:30.490Z,14.03
2017-09-10T02:16:00.028Z,14.10
2017-09-10T02:18:29.098Z,14.22
2017-09-10T02:20:58.533Z,14.25
2017-09-10T02:23:26.874Z,14.26
2017-09-10T02:25:56.519Z,14.23
2017-09-10T02:28:24.910Z,14.27
2017-09-10T02:30:53.303Z,14.28
2017-09-10T02:33:22.315Z,14.34
2017-09-10T02:35:50.711Z,14.27
2017-09-10T02:38:20.149Z,14.26
2017-09-10T02:40:49.536Z,14.33
2017-09-10T02:43:17.880Z,14.17
2017-09-10T02:45:47.066Z,14.17
2017-09-10T02:48:16.409Z,14.11
2017-09-10T02:50:44.823Z,13.94
2017-09-10T02:53:13.166Z,13.87
2017-09-10T02:55:42.023Z,13.67
2017-09-10T02:58:10.358Z,13.60
2017-09-10T03:00:39.527Z,13.75
2017-09-10T03:03:08.216Z,13.70
2017-09-10T03:05:37.355Z,13.52
2017-09-10T03:08:06.644Z,13.62
2017-09-10T03:10:35.563Z,13.61
2017-09-10T03:13:03.919Z,13.61
2017-09-10T03:15:32.697Z,13.59
2017-09-10T03:18:01.864Z,13.78
2017-09-10T03:20:30.222Z,13.74
2017-09-10T03:22:58.686Z,13.66
2017-09-10T03:25:27.616Z,13.58
2017-09-10T03:27:55.960Z,13.52
2017-09-10T03:30:25.085Z,13.36
2017-09-10T03:32:54.271Z,13.00
2017-09-10T03:35:23.485Z,13.03
2017-09-10T03:37:51.827Z,13.10
2017-09-10T03:40:20.510Z,13.06
2017-09-10T03:42:48.965Z,12.86
2017-09-10T03:45:17.341Z,12.75
2017-09-10T03:47:46.184Z,12.55
2017-09-10T03:50:15.321Z,12.67
2017-09-10T03:52:43.667Z,12.62
2017-09-10T03:55:12.598Z,12.75
2017-09-10T03:57:41.636Z,12.68
2017-09-10T04:00:09.993Z,12.91
2017-09-10T04:02:40.443Z,12.91
2017-09-10T04:05:08.803Z,12.87
2017-09-10T04:07:37.172Z,12.92
2017-09-10T04:10:06.610Z,12.94
2017-09-10T04:12:34.954Z,12.94
2017-09-10T04:15:04.283Z,12.91
2017-09-10T04:17:33.387Z,12.98
2017-09-10T04:20:01.721Z,13.04
2017-09-10T04:22:31.225Z,12.98
2017-09-10T04:24:59.966Z,12.71
2017-09-10T04:27:28.934Z,12.97
2017-09-10T04:29:57.287Z,12.99
2017-09-10T04:32:27.352Z,12.70
2017-09-10T04:34:56.587Z,12.72
2017-09-10T04:37:24.953Z,12.67
2017-09-10T04:39:53.817Z,12.65
2017-09-10T04:42:22.168Z,12.57
2017-09-10T04:44:50.529Z,12.49
2017-09-10T04:47:19.249Z,12.24
2017-09-10T04:49:47.637Z,12.20
2017-09-10T04:52:16.202Z,12.44
2017-09-10T04:54:45.429Z,12.47
2017-09-10T04:57:13.782Z,12.30
2017-09-10T04:59:42.152Z,12.40
2017-09-10T05:02:10.918Z,12.34
2017-09-10T05:04:39.970Z,12.45
2017-09-10T05:07:08.996Z,12.44
2017-09-10T05:09:37.886Z,12.52
2017-09-10T05:12:06.822Z,12.40
2017-09-10T05:14:35.358Z,12.35
2017-09-10T05:17:04.147Z,12.33
2017-09-10T05:19:33.202Z,12.39
2017-09-10T05:22:01.553Z,12.25
2017-09-10T05:24:30.235Z,12.27
2017-09-10T05:26:58.578Z,12.11
2017-09-10T05:29:31.032Z,12.32
2017-09-10T05:32:00.451Z,12.22
2017-09-10T05:34:28.790Z,12.44
2017-09-10T05:36:58.722Z,12.44
2017-09-10T05:39:27.823Z,12.43
2017-09-10T05:41:57.095Z,12.36
2017-09-10T05:44:25.591Z,12.51
2017-09-10T05:46:54.219Z,12.61
2017-09-10T05:49:23.581Z,12.91
2017-09-10T05:51:51.959Z,12.99
2017-09-10T05:54:20.794Z,12.91
2017-09-10T05:56:49.148Z,12.90
2017-09-10T05:59:18.242Z,13.03
2017-09-10T06:01:46.925Z,12.85
2017-09-10T06:04:17.454Z,12.81
2017-09-10T06:06:46.463Z,12.66
2017-09-10T06:09:15.199Z,12.69
2017-09-10T06:11:43.545Z,12.75
2017-09-10T06:14:11.896Z,12.65
2017-09-10T06:16:41.401Z,12.94
2017-09-10T06:19:09.754Z,13.09
2017-09-10T06:21:38.115Z,13.21
2017-09-10T06:24:07.977Z,13.21
2017-09-10T06:26:36.331Z,13.15
2017-09-10T06:29:04.734Z,13.29
2017-09-10T06:31:34.373Z,13.47
2017-09-10T06:34:02.746Z,13.72
2017-09-10T06:36:31.126Z,13.68
2017-09-10T06:38:59.754Z,13.52
2017-09-10T06:41:29.145Z,13.38
2017-09-10T06:43:57.500Z,13.64
2017-09-10T06:46:26.290Z,13.64
2017-09-10T06:48:54.655Z,13.73
2017-09-10T06:51:23.060Z,13.57
2017-09-10T06:53:53.475Z,13.64
2017-09-10T06:56:21.845Z,13.78
2017-09-10T06:58:50.184Z,13.80
2017-09-10T07:01:19.003Z,13.89
2017-09-10T07:03:47.383Z,13.99
2017-09-10T07:06:16.510Z,14.07
2017-09-10T07:08:45.731Z,14.19
2017-09-10T07:11:14.383Z,14.53
2017-09-10T07:13:43.094Z,14.31
2017-09-10T07:16:12.427Z,14.34
2017-09-10T07:18:40.802Z,14.36
2017-09-10T07:21:10.202Z,14.33
2017-09-10T07:23:39.948Z,14.18
2017-09-10T07:26:08.314Z,14.15
2017-09-10T07:28:36.708Z,14.07
2017-09-10T07:31:06.321Z,14.13
2017-09-10T07:33:37.202Z,14.20
2017-09-10T07:36:06.149Z,13.84
2017-09-10T07:38:34.774Z,14.22
2017-09-10T07:41:03.696Z,14.15
2017-09-10T07:43:32.044Z,14.69
2017-09-10T07:46:00.699Z,14.66
2017-09-10T07:48:29.648Z,15.09
2017-09-10T07:50:59.383Z,15.30
2017-09-10T07:53:29.560Z,15.18
2017-09-10T07:55:57.899Z,15.54
2017-09-10T07:58:26.256Z,15.53
2017-09-10T08:00:54.922Z,15.48
2017-09-10T08:03:23.365Z,15.53
2017-09-10T08:05:52.080Z,15.80
2017-09-10T08:08:20.935Z,15.60
2017-09-10T08:10:49.849Z,15.28
2017-09-10T08:13:19.166Z,15.70
2017-09-10T08:15:48.212Z,15.35
2017-09-10T08:18:18.428Z,15.55
2017-09-10T08:20:48.454Z,16.08
2017-09-10T08:23:17.099Z,16.41
2017-09-10T08:25:45.472Z,16.46
2017-09-10T08:28:14.042Z,16.03
2017-09-10T08:30:42.996Z,16.41
2017-09-10T08:33:11.347Z,16.28
2017-09-10T08:35:41.083Z,16.76
2017-09-10T08:38:09.790Z,17.20
2017-09-10T08:40:38.131Z,17.95
2017-09-10T08:43:07.390Z,18.76
2017-09-10T08:45:36.032Z,18.59
2017-09-10T08:48:05.267Z,19.19
2017-09-10T08:50:33.624Z,18.74
2017-09-10T08:53:02.424Z,18.91
2017-09-10T08:55:31.494Z,18.51
2017-09-10T08:57:59.906Z,18.49
2017-09-10T09:00:28.650Z,18.73
2017-09-10T09:02:57.018Z,19.77
2017-09-10T09:05:25.374Z,19.08
2017-09-10T09:07:54.034Z,18.99
2017-09-10T09:10:22.425Z,20.26
2017-09-10T09:12:52.283Z,21.78
2017-09-10T09:15:21.007Z,23.93
2017-09-10T09:17:50.134Z,24.12
2017-09-10T09:20:19.233Z,24.47
2017-09-10T09:22:48.095Z,24.80
2017-09-10T09:25:16.906Z,26.26
2017-09-10T09:27:45.790Z,27.33
2017-09-10T09:30:14.584Z,25.93
2017-09-10T09:32:42.980Z,25.09
2017-09-10T09:35:11.908Z,24.87
2017-09-10T09:37:42.536Z,23.14
2017-09-10T09:40:11.649Z,23.52
2017-09-10T09:42:39.994Z,22.95
2017-09-10T09:45:08.821Z,21.92
2017-09-10T09:47:37.189Z,21.27
2017-09-10T09:50:07.329Z,20.55
2017-09-10T09:52:36.981Z,22.96
2017-09-10T09:55:05.334Z,25.56
2017-09-10T09:57:33.678Z,24.28
2017-09-10T10:00:02.351Z,24.63
2017-09-10T10:02:31.462Z,26.98
2017-09-10T10:04:59.822Z,27.39
2017-09-10T10:07:29.382Z,27.40
2017-09-10T10:09:58.668Z,29.07
2017-09-10T10:12:27.376Z,29.60
2017-09-10T10:14:56.229Z,30.85
2017-09-10T10:17:25.386Z,30.37
2017-09-10T10:19:53.737Z,30.55
2017-09-10T10:22:22.702Z,31.41
2017-09-10T10:24:51.074Z,27.64
2017-09-10T10:27:19.439Z,31.10
2017-09-10T10:29:48.997Z,30.47
2017-09-10T10:32:17.362Z,32.75
2017-09-10T10:34:46.335Z,33.78
2017-09-10T10:37:15.082Z,30.22
2017-09-10T10:39:43.440Z,31.47
2017-09-10T10:42:12.586Z,28.24
2017-09-10T10:44:41.277Z,27.88
2017-09-10T10:47:10.418Z,27.15
2017-09-10T10:49:38.793Z,27.92
2017-09-10T10:52:07.797Z,29.92
2017-09-10T10:54:36.147Z,29.80
2017-09-10T10:57:05.961Z,29.36
2017-09-10T10:59:34.879Z,31.04
2017-09-10T11:02:03.816Z,31.11
2017-09-10T11:04:32.954Z,31.77
2017-09-10T11:07:01.701Z,30.62
2017-09-10T11:09:31.798Z,29.23
2017-09-10T11:12:00.200Z,28.56
2017-09-10T11:14:30.879Z,30.26
2017-09-10T11:16:59.224Z,30.66
2017-09-10T11:19:27.558Z,30.93
2017-09-10T11:21:56.308Z,32.20
2017-09-10T11:24:24.644Z,31.80
2017-09-10T11:26:55.028Z,31.15
2017-09-10T11:29:23.984Z,30.86
2017-09-10T11:31:52.355Z,29.99
2017-09-10T11:34:22.512Z,28.90
2017-09-10T11:36:51.474Z,27.82
2017-09-10T11:39:19.843Z,29.69
2017-09-10T11:41:48.984Z,31.04
2017-09-10T11:44:18.770Z,33.72
2017-09-10T11:46:47.280Z,34.66
2017-09-10T11:49:15.692Z,36.38
2017-09-10T11:51:44.343Z,37.49
2017-09-10T11:54:13.592Z,34.06
2017-09-10T11:56:41.962Z,33.92
2017-09-10T11:59:10.744Z,30.71
2017-09-10T12:01:39.771Z,31.69
2017-09-10T12:04:08.107Z,34.00
2017-09-10T12:06:36.738Z,36.00
2017-09-10T12:09:05.993Z,38.01
2017-09-10T12:11:34.344Z,34.63
2017-09-10T12:14:03.261Z,33.08
2017-09-10T12:16:32.248Z,29.70
2017-09-10T12:19:01.360Z,27.94
2017-09-10T12:21:30.525Z,27.74
2017-09-10T12:23:58.877Z,27.97
2017-09-10T12:26:27.999Z,30.03
2017-09-10T12:28:56.785Z,31.40
2017-09-10T12:31:25.774Z,30.35
2017-09-10T12:33:54.110Z,28.71
2017-09-10T12:36:23.563Z,30.69
2017-09-10T12:38:51.932Z,30.00
2017-09-10T12:41:21.053Z,26.42
2017-09-10T12:43:49.739Z,25.49
2017-09-10T12:46:18.085Z,27.58
2017-09-10T12:48:47.185Z,30.84
2017-09-10T12:51:15.783Z,32.30
2017-09-10T12:53:44.113Z,33.98
2017-09-10T12:56:12.454Z,32.70
2017-09-10T12:58:41.226Z,31.11
2017-09-10T13:01:09.579Z,30.29
2017-09-10T13:03:38.704Z,27.12
2017-09-10T13:06:07.885Z,26.13
2017-09-10T13:08:36.235Z,26.01
2017-09-10T13:11:04.628Z,28.07
2017-09-10T13:13:34.921Z,28.39
2017-09-10T13:16:03.317Z,29.09
2017-09-10T13:18:32.509Z,29.38
2017-09-10T13:21:01.141Z,30.51
2017-09-10T13:23:29.514Z,31.62
2017-09-10T13:25:57.893Z,30.58
2017-09-10T13:28:27.499Z,28.92
2017-09-10T13:30:55.913Z,29.02
2017-09-10T13:33:24.260Z,29.79
2017-09-10T13:35:52.875Z,29.15
2017-09-10T13:38:22.379Z,28.74
2017-09-10T13:40:50.724Z,29.32
2017-09-10T13:43:19.847Z,29.17
2017-09-10T13:45:48.205Z,26.68
2017-09-10T13:48:18.035Z,26.49
2017-09-10T13:50:47.077Z,25.68
2017-09-10T13:53:15.453Z,25.20
2017-09-10T13:55:45.229Z,26.44
2017-09-10T13:58:14.544Z,26.88
2017-09-10T14:00:43.522Z,27.65
2017-09-10T14:03:12.769Z,26.90
2017-09-10T14:05:41.463Z,25.02
2017-09-10T14:08:09.838Z,26.34
2017-09-10T14:10:38.255Z,26.26
2017-09-10T14:13:07.213Z,25.90
2017-09-10T14:15:35.592Z,24.97
2017-09-10T14:18:03.954Z,23.94
2017-09-10T14:20:32.616Z,24.39
2017-09-10T14:23:00.980Z,24.90
2017-09-10T14:25:29.591Z,24.24
2017-09-10T14:27:58.446Z,24.42
2017-09-10T14:30:26.806Z,24.25
2017-09-10T14:32:55.921Z,24.29
2017-09-10T14:35:24.974Z,24.14
2017-09-10T14:37:53.623Z,24.59
2017-09-10T14:40:21.997Z,25.18
2017-09-10T14:42:50.767Z,24.70
2017-09-10T14:45:19.180Z,24.73
2017-09-10T14:47:47.526Z,24.79
2017-09-10T14:50:16.216Z,24.03
2017-09-10T14:52:44.563Z,23.52
2017-09-10T14:55:14.398Z,23.83
2017-09-10T14:57:43.279Z,22.91
2017-09-10T15:00:12.393Z,23.36
2017-09-10T15:02:40.834Z,22.48
2017-09-10T15:05:10.399Z,21.84
2017-09-10T15:07:39.562Z,22.04
2017-09-10T15:10:08.012Z,22.04
2017-09-10T15:12:36.929Z,22.23
2017-09-10T15:15:05.289Z,21.96
2017-09-10T15:17:33.642Z,22.19
2017-09-10T15:20:02.501Z,22.55
2017-09-10T15:22:30.878Z,22.58
2017-09-10T15:25:00.016Z,22.22
2017-09-10T15:27:29.599Z,22.10
2017-09-10T15:30:00.659Z,22.10
2017-09-10T15:32:29.107Z,22.21
2017-09-10T15:34:58.663Z,22.40
2017-09-10T15:37:27.025Z,22.26
2017-09-10T15:39:55.395Z,22.29
2017-09-10T15:42:24.767Z,22.11
2017-09-10T15:44:53.118Z,22.17
2017-09-10T15:47:21.473Z,22.45
2017-09-10T15:49:50.123Z,22.46
2017-09-10T15:52:18.477Z,22.06
2017-09-10T15:54:48.267Z,22.32
2017-09-10T15:57:17.550Z,22.42
2017-09-10T15:59:46.289Z,22.32
2017-09-10T16:02:16.267Z,22.28
2017-09-10T16:04:45.606Z,22.40
2017-09-10T16:07:13.947Z,22.06
2017-09-10T16:09:42.298Z,21.41
2017-09-10T16:12:10.934Z,21.46
2017-09-10T16:14:39.471Z,21.53
2017-09-10T16:17:09.355Z,21.37
2017-09-10T16:19:37.985Z,21.84
2017-09-10T16:22:06.325Z,21.71
2017-09-10T16:24:34.688Z,21.69
2017-09-10T16:27:04.612Z,21.60
2017-09-10T16:29:32.991Z,21.57
2017-09-10T16:32:01.399Z,21.71
2017-09-10T16:34:30.322Z,21.43
2017-09-10T16:36:58.669Z,21.59
2017-09-10T16:39:27.013Z,21.69
2017-09-10T16:41:55.703Z,21.48
2017-09-10T16:44:24.039Z,21.42
2017-09-10T16:46:52.389Z,21.40
2017-09-10T16:49:21.311Z,21.32
2017-09-10T16:51:50.391Z,20.97
2017-09-10T16:54:18.734Z,21.11
2017-09-10T16:56:47.423Z,21.06
2017-09-10T16:59:15.815Z,20.69
2017-09-10T17:01:44.185Z,20.51
2017-09-10T17:04:13.055Z,20.73
2017-09-10T17:06:41.399Z,20.50
2017-09-10T17:09:09.771Z,20.62
2017-09-10T17:11:39.128Z,20.53
2017-09-10T17:14:10.444Z,20.18
2017-09-10T17:16:38.841Z,20.26
2017-09-10T17:19:07.534Z,20.43
2017-09-10T17:21:35.931Z,20.25
2017-09-10T17:24:04.369Z,20.28
2017-09-10T17:26:32.990Z,20.29
2017-09-10T17:29:02.400Z,19.90
2017-09-10T17:31:30.746Z,19.88
2017-09-10T17:34:00.471Z,19.82
2017-09-10T17:36:29.519Z,19.87
2017-09-10T17:38:57.876Z,19.79
2017-09-10T17:41:27.286Z,19.62
2017-09-10T17:43:56.702Z,19.77
2017-09-10T17:46:25.124Z,19.70
2017-09-10T17:48:54.544Z,19.85
2017-09-10T17:51:23.629Z,19.84
2017-09-10T17:53:52.060Z,19.60
2017-09-10T17:56:21.849Z,19.70
2017-09-10T17:58:50.414Z,19.62
2017-09-10T18:01:18.782Z,19.65
2017-09-10T18:03:48.362Z,19.59
2017-09-10T18:06:16.943Z,19.70
2017-09-10T18:08:45.969Z,19.58
2017-09-10T18:11:14.711Z,19.30
2017-09-10T18:13:43.723Z,19.25
2017-09-10T18:16:12.149Z,19.25
2017-09-10T18:18:40.958Z,18.92
2017-09-10T18:21:09.438Z,18.97
2017-09-10T18:23:38.551Z,18.77
2017-09-10T18:26:07.364Z,18.71
2017-09-10T18:28:35.983Z,18.68
2017-09-10T18:31:04.475Z,18.63
2017-09-10T18:33:34.169Z,18.50
2017-09-10T18:36:02.600Z,18.56
2017-09-10T18:38:31.752Z,18.48
2017-09-10T18:41:00.860Z,18.51
2017-09-10T18:43:29.940Z,18.56
2017-09-10T18:45:58.318Z,18.24
2017-09-10T18:48:27.065Z,18.38
2017-09-10T18:50:55.538Z,18.42
2017-09-10T18:53:24.913Z,18.14
2017-09-10T18:55:58.625Z,18.01
2017-09-10T18:58:28.813Z,18.15
2017-09-10T19:00:57.404Z,17.95
2017-09-10T19:03:27.082Z,17.95
2017-09-10T19:05:56.475Z,17.80
2017-09-10T19:08:24.842Z,17.95
2017-09-10T19:10:54.411Z,17.75
2017-09-10T19:13:22.920Z,17.78
2017-09-10T19:15:51.955Z,17.79
2017-09-10T19:18:21.056Z,17.84
2017-09-10T19:20:49.878Z,17.51
2017-09-10T19:23:18.279Z,17.51
2017-09-10T19:25:47.254Z,17.65
2017-09-10T19:28:16.547Z,17.51
2017-09-10T19:30:44.920Z,17.58
2017-09-10T19:33:13.547Z,17.50
2017-09-10T19:35:41.910Z,17.51
2017-09-10T19:38:10.294Z,17.44
2017-09-10T19:40:40.831Z,17.48
2017-09-10T19:43:10.464Z,17.47
2017-09-10T19:45:38.879Z,17.42
2017-09-10T19:48:07.675Z,17.41
2017-09-10T19:50:36.027Z,17.36
2017-09-10T19:53:04.369Z,17.23
2017-09-10T19:55:33.640Z,17.29
2017-09-10T19:58:02.021Z,17.35
2017-09-10T20:00:30.821Z,17.26
2017-09-10T20:02:59.505Z,17.26
2017-09-10T20:05:28.768Z,17.19
2017-09-10T20:07:57.284Z,17.25
2017-09-10T20:10:26.556Z,17.08
2017-09-10T20:12:55.955Z,17.08
2017-09-10T20:15:24.304Z,17.12
2017-09-10T20:17:53.169Z,17.23
2017-09-10T20:20:22.466Z,17.12
2017-09-10T20:22:50.842Z,16.92
2017-09-10T20:25:19.473Z,16.75
2017-09-10T20:27:47.796Z,16.88
2017-09-10T20:30:16.166Z,16.86
2017-09-10T20:32:45.088Z,16.94
2017-09-10T20:35:13.416Z,17.10
2017-09-10T20:37:42.561Z,16.96
2017-09-10T20:40:11.176Z,16.86
2017-09-10T20:42:40.376Z,16.79
2017-09-10T20:45:08.740Z,16.85
2017-09-10T20:47:37.470Z,16.66
2017-09-10T20:50:06.063Z,16.71
2017-09-10T20:52:35.266Z,16.61
2017-09-10T20:55:04.546Z,16.58
2017-09-10T20:57:33.906Z,16.67
2017-09-10T21:00:02.270Z,16.81
2017-09-10T21:02:31.129Z,16.66
2017-09-10T21:05:00.466Z,16.57
2017-09-10T21:07:28.817Z,16.68
2017-09-10T21:09:58.213Z,16.72
2017-09-10T21:12:27.549Z,16.74
2017-09-10T21:14:55.894Z,16.63
2017-09-10T21:17:25.152Z,16.53
2017-09-10T21:19:54.103Z,16.57
2017-09-10T21:22:22.704Z,16.67
2017-09-10T21:24:51.800Z,16.66
2017-09-10T21:27:21.067Z,16.59
2017-09-10T21:29:49.426Z,16.63
2017-09-10T21:32:18.984Z,16.64
2017-09-10T21:34:47.349Z,16.45
2017-09-10T21:37:15.663Z,16.50
2017-09-10T21:39:44.451Z,16.44
2017-09-10T21:42:12.828Z,16.58
2017-09-10T21:44:41.221Z,16.58
2017-09-10T21:47:10.221Z,16.40
2017-09-10T21:49:39.502Z,16.50
2017-09-10T21:52:08.660Z,16.51
2017-09-10T21:54:38.160Z,16.58
2017-09-10T21:57:07.346Z,16.43
2017-09-10T21:59:36.786Z,16.50
2017-09-10T22:02:06.671Z,16.51
2017-09-10T22:04:35.049Z,16.48
2017-09-10T22:07:04.170Z,16.51
2017-09-10T22:09:33.465Z,16.38
2017-09-10T22:12:01.949Z,16.47
2017-09-10T22:14:30.327Z,16.41
2017-09-10T22:16:59.057Z,16.21
2017-09-10T22:19:27.440Z,16.27
2017-09-10T22:21:55.820Z,16.21
2017-09-10T22:24:25.162Z,16.14
2017-09-10T22:26:53.494Z,16.17
2017-09-10T22:29:23.288Z,16.32
2017-09-10T22:31:54.876Z,16.28
2017-09-10T22:34:23.346Z,16.29
2017-09-10T22:36:51.749Z,16.20
2017-09-10T22:39:20.437Z,15.98
2017-09-10T22:41:50.209Z,16.16
2017-09-10T22:44:19.238Z,16.25
2017-09-10T22:46:48.264Z,16.14
2017-09-10T22:49:16.616Z,16.11
2017-09-10T22:51:45.710Z,16.07
2017-09-10T22:54:14.384Z,16.07
2017-09-10T22:56:43.723Z,16.11
2017-09-10T22:59:12.065Z,15.91
2017-09-10T23:01:40.668Z,15.91
2017-09-10T23:04:09.800Z,16.08
2017-09-10T23:06:38.126Z,16.09
2017-09-10T23:09:07.251Z,16.03
2017-09-10T23:11:37.039Z,15.94
2017-09-10T23:14:06.446Z,15.92
2017-09-10T23:16:35.162Z,16.12
2017-09-10T23:19:03.507Z,16.00
2017-09-10T23:21:31.893Z,16.09
2017-09-10T23:24:00.627Z,16.20
2017-09-10T23:26:28.984Z,16.25
2017-09-10T23:28:58.794Z,16.19
2017-09-10T23:31:27.889Z,16.29
2017-09-10T23:33:56.269Z,16.25
2017-09-10T23:36:24.817Z,16.32
2017-09-10T23:38:53.615Z,16.14
2017-09-10T23:41:23.428Z,16.14
2017-09-10T23:43:53.445Z,16.00
2017-09-10T23:46:23.689Z,15.96
2017-09-10T23:48:52.052Z,16.09
2017-09-10T23:51:20.587Z,16.09
2017-09-10T23:53:50.242Z,16.10
2017-09-10T23:56:18.613Z,16.01
2017-09-10T23:58:46.959Z,15.99
